createdAt,value
2023-05-23T03:15:23.862Z,18.60
2023-05-23T03:17:51.379Z,18.50
2023-05-23T03:20:18.506Z,18.50
2023-05-23T03:22:45.959Z,18.60
2023-05-23T03:25:13.318Z,18.50
2023-05-23T03:27:40.409Z,18.60
2023-05-23T03:30:08.394Z,18.60
2023-05-23T03:32:36.350Z,18.60
2023-05-23T03:35:03.614Z,18.50
2023-05-23T03:37:30.665Z,18.50
2023-05-23T03:39:57.872Z,18.50
2023-05-23T03:42:25.183Z,18.50
2023-05-23T03:44:52.768Z,18.50
2023-05-23T03:47:19.946Z,18.50
2023-05-23T03:49:48.370Z,18.50
2023-05-23T03:52:15.516Z,18.50
2023-05-23T03:54:43.097Z,18.50
2023-05-23T03:57:10.203Z,18.50
2023-05-23T03:59:38.209Z,18.50
2023-05-23T04:02:09.840Z,18.50
2023-05-23T04:04:37.125Z,18.40
2023-05-23T04:07:05.755Z,18.40
2023-05-23T04:09:33.137Z,18.40
2023-05-23T04:12:01.212Z,18.40
2023-05-23T04:14:29.514Z,18.40
2023-05-23T04:16:59.119Z,18.30
2023-05-23T04:19:26.177Z,18.40
2023-05-23T04:21:54.047Z,18.40
2023-05-23T04:24:23.905Z,18.40
2023-05-23T04:26:51.091Z,18.40
2023-05-23T04:29:18.308Z,18.40
2023-05-23T04:31:46.105Z,18.30
2023-05-23T04:34:13.529Z,18.30
2023-05-23T04:36:40.587Z,18.30
2023-05-23T04:39:08.318Z,18.40
2023-05-23T04:41:45.335Z,18.40
2023-05-23T04:44:32.246Z,18.40
2023-05-23T04:47:16.647Z,18.40
2023-05-23T04:50:04.275Z,18.40
2023-05-23T04:52:34.101Z,18.40
2023-05-23T04:55:01.857Z,18.50
2023-05-23T04:57:29.577Z,18.50
2023-05-23T04:59:57.482Z,18.50
2023-05-23T05:02:27.147Z,18.50
2023-05-23T05:04:54.243Z,18.50
2023-05-23T05:07:21.351Z,18.50
2023-05-23T05:09:48.311Z,18.50
2023-05-23T05:12:15.479Z,18.50
2023-05-23T05:14:42.514Z,18.50
2023-05-23T05:17:09.665Z,18.40
2023-05-23T05:19:46.628Z,18.30
2023-05-23T05:22:13.743Z,18.20
2023-05-23T05:24:41.090Z,18.10
2023-05-23T05:27:09.597Z,18.10
2023-05-23T05:29:36.797Z,18.10
2023-05-23T05:32:04.287Z,18.10
2023-05-23T05:34:31.281Z,18.00
2023-05-23T05:36:59.110Z,18.00
2023-05-23T05:39:26.795Z,17.90
2023-05-23T05:41:54.948Z,17.80
2023-05-23T05:44:22.904Z,17.70
2023-05-23T05:46:51.859Z,17.60
2023-05-23T05:49:19.213Z,17.70
2023-05-23T05:51:46.814Z,17.80
2023-05-23T05:54:14.219Z,18.00
2023-05-23T05:56:42.393Z,18.40
2023-05-23T05:59:10.273Z,18.80
2023-05-23T06:01:38.621Z,19.00
2023-05-23T06:04:06.568Z,19.20
2023-05-23T06:06:34.665Z,19.40
2023-05-23T06:09:01.754Z,19.50
2023-05-23T06:11:30.020Z,19.30
2023-05-23T06:13:57.882Z,19.30
2023-05-23T06:16:25.135Z,19.30
2023-05-23T06:18:52.299Z,19.30
2023-05-23T06:21:23.479Z,19.20
2023-05-23T06:23:52.427Z,19.10
2023-05-23T06:26:19.448Z,19.10
